createdAt,value
2018-11-29T07:28:45.207Z,32.15
2018-11-29T07:31:13.657Z,29.52
2018-11-29T07:33:42.098Z,33.23
2018-11-29T07:36:10.513Z,33.92
2018-11-29T07:38:38.958Z,33.13
2018-11-29T07:41:07.410Z,34.35
2018-11-29T07:43:35.834Z,31.23
2018-11-29T07:46:04.265Z,36.08
2018-11-29T07:48:32.689Z,31.60
2018-11-29T07:51:01.099Z,31.25
2018-11-29T07:53:29.487Z,33.05
2018-11-29T07:55:57.902Z,32.90
2018-11-29T07:58:26.387Z,28.92
2018-11-29T08:00:54.821Z,29.77
2018-11-29T08:03:23.209Z,29.92
2018-11-29T08:05:51.613Z,25.95
2018-11-29T08:08:20.033Z,27.30
2018-11-29T08:10:48.402Z,27.15
2018-11-29T08:13:16.827Z,25.48
2018-11-29T08:15:45.238Z,24.40
2018-11-29T08:18:13.677Z,26.17
2018-11-29T08:20:42.110Z,23.85
2018-11-29T08:23:10.486Z,25.00
2018-11-29T08:25:38.886Z,26.37
2018-11-29T08:28:07.260Z,24.67
2018-11-29T08:30:35.725Z,26.42
2018-11-29T08:33:04.238Z,25.77
2018-11-29T08:35:32.742Z,28.87
2018-11-29T08:38:01.178Z,24.63
2018-11-29T08:40:29.602Z,26.05
2018-11-29T08:42:58.006Z,26.50
2018-11-29T08:45:26.430Z,24.98
2018-11-29T08:47:54.876Z,27.15
2018-11-29T08:50:23.354Z,27.85
2018-11-29T08:52:51.761Z,27.85
2018-11-29T08:55:20.678Z,27.17
2018-11-29T08:57:49.530Z,26.90
2018-11-29T09:00:19.023Z,26.77
2018-11-29T09:02:47.480Z,24.07
2018-11-29T09:05:15.926Z,25.92
2018-11-29T09:07:45.478Z,23.75
2018-11-29T09:10:20.002Z,24.30
2018-11-29T09:12:48.424Z,23.52
2018-11-29T09:15:17.446Z,26.30
2018-11-29T09:17:45.929Z,23.30
2018-11-29T09:20:17.277Z,23.25
2018-11-29T09:22:45.655Z,23.90
2018-11-29T09:25:16.726Z,23.07
2018-11-29T09:27:45.187Z,25.43
2018-11-29T09:30:15.758Z,23.70
2018-11-29T09:32:44.938Z,24.40
2018-11-29T09:35:13.426Z,23.30
2018-11-29T09:37:41.935Z,24.27
2018-11-29T09:40:12.548Z,23.92
2018-11-29T09:42:41.131Z,23.15
2018-11-29T09:45:12.169Z,24.82
2018-11-29T09:47:40.570Z,24.23
2018-11-29T09:50:10.838Z,23.22
2018-11-29T09:52:39.852Z,21.27
2018-11-29T09:55:09.310Z,25.75
2018-11-29T09:57:37.699Z,22.93
2018-11-29T10:00:13.842Z,24.72
2018-11-29T10:02:43.354Z,22.65
2018-11-29T10:05:12.577Z,22.75
2018-11-29T10:07:41.011Z,24.47
2018-11-29T10:10:10.854Z,22.10
2018-11-29T10:12:40.087Z,22.90
2018-11-29T10:15:10.449Z,21.80
2018-11-29T10:17:38.871Z,23.25
2018-11-29T10:20:09.509Z,21.68
2018-11-29T10:22:38.121Z,21.35
2018-11-29T10:25:08.414Z,19.70
2018-11-29T10:27:36.822Z,20.88
2018-11-29T10:30:11.798Z,21.00
2018-11-29T10:32:40.224Z,19.52
2018-11-29T10:35:09.342Z,22.75
2018-11-29T10:37:37.878Z,19.55
2018-11-29T10:40:08.311Z,21.48
2018-11-29T10:42:36.766Z,21.17
2018-11-29T10:45:07.902Z,21.52
2018-11-29T10:47:36.315Z,21.52
2018-11-29T10:50:05.515Z,22.75
2018-11-29T10:52:33.919Z,21.45
2018-11-29T10:55:02.291Z,21.97
2018-11-29T10:57:30.713Z,20.75
2018-11-29T10:59:59.120Z,22.50
2018-11-29T11:02:28.934Z,22.13
2018-11-29T11:04:57.645Z,22.87
2018-11-29T11:07:26.080Z,24.50
2018-11-29T11:09:54.514Z,24.02
2018-11-29T11:12:22.923Z,23.22
2018-11-29T11:14:51.330Z,24.70
2018-11-29T11:17:19.795Z,24.35
2018-11-29T11:19:48.608Z,24.63
2018-11-29T11:22:17.041Z,25.32
2018-11-29T11:24:45.434Z,23.62
2018-11-29T11:27:14.161Z,23.55
2018-11-29T11:29:42.551Z,25.25
2018-11-29T11:32:10.977Z,22.42
2018-11-29T11:34:39.386Z,23.57
2018-11-29T11:37:07.757Z,22.37
2018-11-29T11:39:36.158Z,20.57
2018-11-29T11:42:04.577Z,20.70
2018-11-29T11:44:33.195Z,21.77
2018-11-29T11:47:01.606Z,21.37
2018-11-29T11:49:30.027Z,21.02
2018-11-29T11:51:58.446Z,21.80
2018-11-29T11:54:26.888Z,21.27
2018-11-29T11:58:53.090Z,21.23
2018-11-29T12:01:21.458Z,19.50
2018-11-29T12:03:49.838Z,21.37
2018-11-29T12:06:18.259Z,22.27
2018-11-29T12:08:46.676Z,19.82
2018-11-29T12:11:15.111Z,20.23
2018-11-29T12:13:43.526Z,22.15
2018-11-29T12:16:11.983Z,20.17
2018-11-29T12:18:40.363Z,20.85
2018-11-29T12:21:08.747Z,21.50
2018-11-29T12:23:37.147Z,22.02
2018-11-29T12:26:05.665Z,20.80
2018-11-29T12:28:34.158Z,21.20
2018-11-29T12:31:02.581Z,20.00
2018-11-29T12:33:30.941Z,23.98
2018-11-29T12:35:59.387Z,19.70
2018-11-29T12:38:27.771Z,21.10
2018-11-29T12:40:56.217Z,21.60
2018-11-29T12:43:24.623Z,20.48
2018-11-29T12:45:53.068Z,19.90
2018-11-29T12:48:21.462Z,21.35
2018-11-29T12:50:49.897Z,21.65
2018-11-29T12:53:18.367Z,21.30
2018-11-29T12:55:46.779Z,20.12
2018-11-29T12:58:15.148Z,19.20
2018-11-29T13:00:43.618Z,22.67
2018-11-29T13:03:12.198Z,20.70
2018-11-29T13:05:40.670Z,20.92
2018-11-29T13:08:09.715Z,23.25
2018-11-29T13:10:38.228Z,24.67
2018-11-29T13:13:07.203Z,21.40
2018-11-29T13:15:35.720Z,22.60
2018-11-29T13:18:06.004Z,23.20
2018-11-29T13:20:34.414Z,23.35
2018-11-29T13:23:02.966Z,23.73
2018-11-29T13:25:31.383Z,22.80
2018-11-29T13:27:59.864Z,22.48
2018-11-29T13:30:28.293Z,25.82
2018-11-29T13:32:57.346Z,21.52
2018-11-29T13:35:29.889Z,21.60
2018-11-29T13:38:02.462Z,21.90
2018-11-29T13:40:30.898Z,23.15
2018-11-29T13:42:59.328Z,22.58
2018-11-29T13:45:27.727Z,22.37
2018-11-29T13:47:56.195Z,23.05
2018-11-29T13:50:24.721Z,22.80
2018-11-29T13:52:53.115Z,22.75
2018-11-29T13:55:21.555Z,25.08
2018-11-29T13:57:50.679Z,24.65
2018-11-29T14:00:20.072Z,23.52
2018-11-29T14:02:49.726Z,23.22
2018-11-29T14:05:18.172Z,22.55
2018-11-29T14:07:46.726Z,25.43
2018-11-29T14:10:16.373Z,23.25
2018-11-29T14:12:45.557Z,23.27
2018-11-29T14:15:15.994Z,23.20
2018-11-29T14:17:44.462Z,25.50
2018-11-29T14:20:13.776Z,24.30
2018-11-29T14:22:42.206Z,24.12
2018-11-29T14:25:11.778Z,24.02
2018-11-29T14:27:40.685Z,24.80
2018-11-29T14:30:26.716Z,22.95
2018-11-29T14:32:57.338Z,22.85
2018-11-29T14:35:25.793Z,22.90
2018-11-29T14:37:54.239Z,22.05
2018-11-29T14:40:23.811Z,24.25
2018-11-29T14:42:52.246Z,24.43
2018-11-29T14:45:23.853Z,23.77
2018-11-29T14:47:52.260Z,25.95
2018-11-29T14:50:25.211Z,24.57
2018-11-29T14:52:53.694Z,22.35
2018-11-29T14:55:22.148Z,25.35
2018-11-29T14:57:50.545Z,25.30
2018-11-29T15:00:18.993Z,26.40
2018-11-29T15:02:47.741Z,23.67
2018-11-29T15:05:24.154Z,25.10
2018-11-29T15:07:52.631Z,23.30
2018-11-29T15:10:21.061Z,24.10
2018-11-29T15:12:49.499Z,23.85
2018-11-29T15:15:17.938Z,25.23
2018-11-29T15:17:47.170Z,25.60
2018-11-29T15:20:18.944Z,24.75
2018-11-29T15:22:47.413Z,24.18
2018-11-29T15:25:15.827Z,27.42
2018-11-29T15:27:44.291Z,23.92
2018-11-29T15:30:14.134Z,24.45
2018-11-29T15:32:42.544Z,24.50
2018-11-29T15:35:11.028Z,25.77
2018-11-29T15:37:39.474Z,25.88
2018-11-29T15:40:12.098Z,27.62
2018-11-29T15:42:40.529Z,25.55
2018-11-29T15:45:11.546Z,27.07
2018-11-29T15:47:40.106Z,26.25
2018-11-29T15:50:11.036Z,25.57
2018-11-29T15:52:39.433Z,25.95
2018-11-29T15:55:10.628Z,25.10
2018-11-29T15:59:21.639Z,24.35
2018-11-29T16:01:50.094Z,23.85
2018-11-29T16:04:18.500Z,24.57
2018-11-29T16:06:46.894Z,25.27
2018-11-29T16:09:20.229Z,25.12
2018-11-29T16:11:48.655Z,24.77
2018-11-29T16:14:17.294Z,24.02
2018-11-29T16:16:45.711Z,24.43
2018-11-29T16:19:14.118Z,27.17
2018-11-29T16:21:42.572Z,27.40
2018-11-29T16:24:11.033Z,26.35
2018-11-29T16:26:39.434Z,27.15
2018-11-29T16:29:07.868Z,28.05
2018-11-29T16:31:36.299Z,28.42
2018-11-29T16:34:04.784Z,26.85
2018-11-29T16:36:33.212Z,27.93
2018-11-29T16:39:01.648Z,28.15
2018-11-29T16:41:30.065Z,24.32
2018-11-29T16:43:58.470Z,24.47
2018-11-29T16:46:26.906Z,25.00
2018-11-29T16:48:55.310Z,24.55
2018-11-29T16:51:23.734Z,23.42
2018-11-29T16:53:52.297Z,22.67
2018-11-29T16:56:20.695Z,23.73
2018-11-29T16:58:49.179Z,24.90
2018-11-29T17:01:17.632Z,22.32
2018-11-29T17:03:46.217Z,25.27
2018-11-29T17:06:14.755Z,24.50
2018-11-29T17:08:43.199Z,23.22
2018-11-29T17:11:11.647Z,23.70
2018-11-29T17:13:40.194Z,22.50
2018-11-29T17:16:08.599Z,24.30
2018-11-29T17:18:37.103Z,22.73
2018-11-29T17:21:05.607Z,21.75
2018-11-29T17:23:34.150Z,22.52
2018-11-29T17:26:02.711Z,23.07
2018-11-29T17:28:31.124Z,23.92
2018-11-29T17:30:59.591Z,23.65
2018-11-29T17:33:28.040Z,23.95
2018-11-29T17:35:56.490Z,21.90
2018-11-29T17:38:24.918Z,22.45
2018-11-29T17:40:53.374Z,21.45
2018-11-29T17:43:21.799Z,21.68
2018-11-29T17:45:50.230Z,20.52
2018-11-29T17:48:18.734Z,22.30
2018-11-29T17:50:47.187Z,24.18
2018-11-29T17:53:15.707Z,22.42
2018-11-29T17:55:44.138Z,22.75
2018-11-29T17:58:14.165Z,22.87
2018-11-29T18:00:44.876Z,24.23
2018-11-29T18:03:14.593Z,23.02
2018-11-29T18:05:43.045Z,21.10
2018-11-29T18:08:11.765Z,21.95
2018-11-29T18:10:41.031Z,22.27
2018-11-29T18:13:15.241Z,21.40
2018-11-29T18:15:43.747Z,23.15
2018-11-29T18:18:12.511Z,23.75
2018-11-29T18:20:41.039Z,23.87
2018-11-29T18:23:09.983Z,23.07
2018-11-29T18:25:38.479Z,23.70
2018-11-29T18:28:07.587Z,24.05
2018-11-29T18:30:36.079Z,23.75
2018-11-29T18:33:04.521Z,22.30
2018-11-29T18:35:32.915Z,24.10
2018-11-29T18:38:01.341Z,21.07
2018-11-29T18:40:29.749Z,23.30
2018-11-29T18:42:59.319Z,24.20
2018-11-29T18:45:28.029Z,22.50
2018-11-29T18:47:56.802Z,22.82
2018-11-29T18:50:26.291Z,22.60
2018-11-29T18:52:54.733Z,21.35
2018-11-29T18:55:24.474Z,19.20
2018-11-29T18:57:53.335Z,20.97
2018-11-29T19:00:23.058Z,21.17
2018-11-29T19:02:56.771Z,21.80
2018-11-29T19:05:20.003Z,22.15
2018-11-29T19:07:48.413Z,21.57
2018-11-29T19:10:17.849Z,18.55
2018-11-29T19:12:50.197Z,20.27
2018-11-29T19:15:18.661Z,20.92
2018-11-29T19:17:47.095Z,19.77
2018-11-29T19:20:15.547Z,18.42
2018-11-29T19:22:44.019Z,20.37
2018-11-29T19:25:14.905Z,19.95
2018-11-29T19:27:43.343Z,20.27
2018-11-29T19:30:13.458Z,19.35
2018-11-29T19:32:41.981Z,21.00
2018-11-29T19:35:11.364Z,19.82
2018-11-29T19:37:39.794Z,20.17
2018-11-29T19:40:11.881Z,20.40
2018-11-29T19:42:40.507Z,23.75
2018-11-29T19:45:11.433Z,20.70
2018-11-29T19:47:40.579Z,23.00
2018-11-29T19:50:18.963Z,22.22
2018-11-29T19:52:49.689Z,21.12
2018-11-29T19:55:20.733Z,22.02
2018-11-29T19:57:49.171Z,23.32
2018-11-29T20:00:17.583Z,22.17
2018-11-29T20:02:46.923Z,22.87
2018-11-29T20:05:15.406Z,22.52
2018-11-29T20:07:43.865Z,24.75
2018-11-29T20:10:13.564Z,25.05
2018-11-29T20:12:42.081Z,23.62
2018-11-29T20:15:18.551Z,21.70
2018-11-29T20:17:48.010Z,21.82
2018-11-29T20:20:16.451Z,22.35
2018-11-29T20:22:44.876Z,22.30
2018-11-29T20:25:16.373Z,21.77
2018-11-29T20:27:45.202Z,22.17
2018-11-29T20:30:15.873Z,22.05
2018-11-29T20:32:44.494Z,21.80
2018-11-29T20:35:13.386Z,25.68
2018-11-29T20:37:42.231Z,25.77
2018-11-29T20:40:14.870Z,21.40
2018-11-29T20:42:44.003Z,21.60
2018-11-29T20:45:16.934Z,21.85
2018-11-29T20:47:45.577Z,22.00
2018-11-29T20:50:16.567Z,21.57
2018-11-29T20:52:45.530Z,21.30
2018-11-29T20:55:16.553Z,20.37
2018-11-29T20:57:45.009Z,20.88
2018-11-29T21:00:14.593Z,20.75
2018-11-29T21:02:43.428Z,20.72
2018-11-29T21:05:14.093Z,22.42
2018-11-29T21:07:45.018Z,21.75
2018-11-29T21:10:16.990Z,23.22
2018-11-29T21:12:45.583Z,20.75
2018-11-29T21:15:14.194Z,23.10
2018-11-29T21:17:42.666Z,23.35
2018-11-29T21:20:13.487Z,22.67
2018-11-29T21:22:42.989Z,21.40
2018-11-29T21:25:12.807Z,22.22
2018-11-29T21:27:41.235Z,20.40
2018-11-29T21:30:13.012Z,21.77
2018-11-29T21:32:41.573Z,22.58
2018-11-29T21:35:12.399Z,20.80
2018-11-29T21:37:40.845Z,21.17
2018-11-29T21:40:14.192Z,24.00
2018-11-29T21:42:42.624Z,19.25
2018-11-29T21:45:11.078Z,20.00
2018-11-29T21:47:39.582Z,24.98
2018-11-29T21:50:08.654Z,22.73
2018-11-29T21:52:37.080Z,21.50
2018-11-29T21:55:06.218Z,21.17
2018-11-29T21:57:34.678Z,22.10
2018-11-29T22:00:03.733Z,20.97
2018-11-29T22:02:32.178Z,19.62
2018-11-29T22:05:00.765Z,20.23
2018-11-29T22:07:29.205Z,21.35
2018-11-29T22:09:57.596Z,19.92
2018-11-29T22:12:25.987Z,19.60
2018-11-29T22:14:54.406Z,20.62
2018-11-29T22:17:22.807Z,20.57
2018-11-29T22:19:51.214Z,22.82
2018-11-29T22:22:19.806Z,22.35
2018-11-29T22:24:48.190Z,21.15
2018-11-29T22:27:16.582Z,19.98
2018-11-29T22:29:44.994Z,20.50
2018-11-29T22:32:13.398Z,19.90
2018-11-29T22:34:41.813Z,19.70
2018-11-29T22:37:10.235Z,20.00
2018-11-29T22:39:38.747Z,21.45
2018-11-29T22:42:07.172Z,21.23
2018-11-29T22:44:35.614Z,20.02
2018-11-29T22:47:04.014Z,20.05
2018-11-29T22:49:32.795Z,19.40
2018-11-29T22:52:01.177Z,20.15
2018-11-29T22:54:29.574Z,21.55
2018-11-29T22:56:57.979Z,21.70
2018-11-29T22:59:26.384Z,20.02
2018-11-29T23:01:54.794Z,20.48
2018-11-29T23:04:23.199Z,23.38
2018-11-29T23:06:51.689Z,20.68
2018-11-29T23:09:20.134Z,21.87
2018-11-29T23:11:48.543Z,21.33
2018-11-29T23:14:16.967Z,22.82
2018-11-29T23:16:45.366Z,20.50
2018-11-29T23:19:13.754Z,24.40
2018-11-29T23:21:42.156Z,21.33
2018-11-29T23:24:10.531Z,21.82
2018-11-29T23:26:38.970Z,20.65
2018-11-29T23:29:07.345Z,21.73
2018-11-29T23:31:35.778Z,23.20
2018-11-29T23:34:04.230Z,22.73
2018-11-29T23:36:32.651Z,21.45
2018-11-29T23:39:01.063Z,21.70
2018-11-29T23:41:29.469Z,22.13
2018-11-29T23:43:57.860Z,24.20
2018-11-29T23:46:26.269Z,24.10
2018-11-29T23:48:54.630Z,21.73
2018-11-29T23:51:23.040Z,22.82
2018-11-29T23:53:51.457Z,24.00
2018-11-29T23:56:19.826Z,23.90
2018-11-29T23:58:48.231Z,23.27
